createdAt,value
2023-01-08T00:00:35.611Z,40.40
2023-01-08T00:03:50.240Z,41.10
2023-01-08T00:07:02.737Z,39.55
2023-01-08T00:10:15.957Z,37.68
2023-01-08T00:13:28.587Z,37.48
2023-01-08T00:16:40.971Z,37.10
2023-01-08T00:19:53.211Z,40.33
2023-01-08T00:23:05.490Z,41.48
2023-01-08T00:26:19.745Z,36.20
2023-01-08T00:29:33.040Z,37.63
2023-01-08T00:32:45.272Z,38.60
2023-01-08T00:35:58.837Z,40.30
2023-01-08T00:39:11.151Z,41.10
2023-01-08T00:42:23.413Z,43.03
2023-01-08T00:45:35.747Z,38.13
2023-01-08T00:48:47.998Z,40.23
2023-01-08T00:52:00.420Z,38.80
2023-01-08T00:55:14.410Z,38.95
2023-01-08T00:58:26.582Z,41.10
2023-01-08T01:01:39.012Z,38.00
2023-01-08T01:04:51.346Z,35.03
2023-01-08T01:08:04.198Z,36.23
2023-01-08T01:11:21.928Z,35.38
2023-01-08T01:14:34.094Z,38.95
2023-01-08T01:17:49.101Z,37.68
2023-01-08T01:21:01.708Z,39.33
2023-01-08T01:24:17.011Z,36.13
2023-01-08T01:27:29.306Z,33.98
2023-01-08T01:30:41.561Z,33.50
2023-01-08T01:33:54.271Z,34.83
2023-01-08T01:37:07.557Z,35.90
2023-01-08T01:40:20.437Z,34.53
2023-01-08T01:43:49.666Z,32.88
2023-01-08T01:47:01.819Z,32.25
2023-01-08T01:50:19.850Z,32.28
2023-01-08T01:53:36.759Z,32.00
2023-01-08T01:56:49.917Z,34.48
2023-01-08T02:00:04.692Z,32.85
2023-01-08T02:03:20.912Z,31.20
2023-01-08T02:06:41.836Z,30.08
2023-01-08T02:10:01.389Z,32.00
2023-01-08T02:13:20.538Z,31.65
2023-01-08T02:16:39.617Z,32.88
2023-01-08T02:19:56.119Z,30.13
2023-01-08T02:23:26.671Z,29.88
2023-01-08T02:26:40.671Z,30.38
2023-01-08T02:29:54.095Z,31.98
2023-01-08T02:33:06.423Z,31.03
2023-01-08T02:36:44.332Z,31.78
2023-01-08T02:40:10.143Z,31.18
2023-01-08T02:43:28.178Z,28.60
2023-01-08T02:46:44.030Z,32.38
2023-01-08T02:50:01.860Z,31.85
2023-01-08T02:53:19.412Z,31.50
2023-01-08T02:56:36.543Z,26.95
2023-01-08T03:03:08.448Z,27.90
2023-01-08T03:06:23.283Z,29.73
2023-01-08T03:09:35.582Z,30.75
2023-01-08T03:13:02.914Z,28.88
2023-01-08T03:19:33.457Z,25.30
2023-01-08T03:22:51.240Z,26.40
2023-01-08T03:26:05.414Z,25.65
2023-01-08T03:29:24.401Z,26.83
2023-01-08T03:32:38.287Z,27.90
2023-01-08T03:35:54.891Z,25.73
2023-01-08T03:39:12.654Z,23.50
2023-01-08T03:42:26.648Z,21.90
2023-01-08T03:45:40.494Z,21.05
2023-01-08T03:48:54.523Z,23.50
2023-01-08T03:52:07.081Z,23.18
2023-01-08T03:55:19.593Z,22.53
2023-01-08T03:58:31.729Z,21.05
2023-01-08T04:01:44.288Z,19.40
2023-01-08T04:04:56.846Z,19.28
2023-01-08T04:08:09.425Z,20.43
2023-01-08T04:11:21.628Z,21.73
2023-01-08T04:14:33.782Z,21.33
2023-01-08T04:17:46.175Z,21.10
2023-01-08T04:20:58.530Z,19.88
2023-01-08T04:24:11.313Z,18.73
2023-01-08T04:27:23.627Z,18.78
2023-01-08T04:30:35.783Z,19.78
2023-01-08T04:33:48.044Z,18.28
2023-01-08T04:37:00.364Z,20.00
2023-01-08T04:40:15.716Z,19.15
2023-01-08T04:43:28.024Z,18.98
2023-01-08T04:46:40.465Z,18.28
2023-01-08T04:49:53.261Z,19.65
2023-01-08T04:53:06.785Z,19.33
2023-01-08T04:56:19.313Z,20.13
2023-01-08T04:59:31.788Z,17.80
2023-01-08T05:02:44.666Z,18.15
2023-01-08T05:05:57.422Z,18.23
2023-01-08T05:09:10.026Z,19.05
2023-01-08T05:12:22.297Z,17.88
2023-01-08T05:15:34.751Z,16.25
2023-01-08T05:18:47.109Z,17.78
2023-01-08T05:21:59.228Z,18.65
2023-01-08T05:25:12.805Z,17.88
2023-01-08T05:28:24.984Z,17.48
2023-01-08T05:31:37.317Z,19.00
2023-01-08T05:34:50.510Z,18.23
2023-01-08T05:38:05.446Z,15.83
2023-01-08T05:41:18.229Z,16.50
2023-01-08T05:44:30.405Z,17.78
2023-01-08T05:47:42.933Z,16.93
2023-01-08T05:50:56.619Z,17.53
2023-01-08T05:54:08.934Z,17.85
2023-01-08T05:57:21.123Z,18.43
2023-01-08T06:00:33.346Z,17.93
2023-01-08T06:03:46.395Z,17.60
2023-01-08T06:06:58.835Z,17.85
2023-01-08T06:10:12.598Z,19.43
2023-01-08T06:13:24.747Z,18.70
2023-01-08T06:16:37.189Z,18.28
2023-01-08T06:19:49.537Z,18.48
2023-01-08T06:23:02.882Z,18.30
2023-01-08T06:26:15.232Z,17.80
2023-01-08T06:29:27.567Z,18.08
2023-01-08T06:32:39.759Z,16.95
2023-01-08T06:35:51.853Z,16.45
2023-01-08T06:39:03.987Z,16.50
2023-01-08T06:42:16.354Z,17.70
2023-01-08T06:45:28.593Z,18.15
2023-01-08T06:48:40.789Z,17.00
2023-01-08T06:51:53.260Z,17.50
2023-01-08T06:55:06.175Z,17.95
2023-01-08T06:58:19.733Z,16.90
2023-01-08T07:01:32.124Z,17.58
2023-01-08T07:04:44.755Z,17.88
2023-01-08T07:07:57.207Z,19.85
2023-01-08T07:11:11.589Z,19.23
2023-01-08T07:14:23.807Z,66.20
2023-01-08T07:17:38.212Z,19.48
2023-01-08T07:20:50.539Z,15.93
2023-01-08T07:24:04.102Z,16.73
2023-01-08T07:27:16.231Z,18.48
2023-01-08T07:30:30.319Z,16.30
2023-01-08T07:33:42.864Z,17.33
2023-01-08T07:36:55.025Z,17.23
2023-01-08T07:40:07.426Z,16.70
2023-01-08T07:43:20.087Z,16.98
2023-01-08T07:46:32.483Z,16.60
2023-01-08T07:49:44.697Z,14.75
2023-01-08T07:52:57.097Z,16.50
2023-01-08T07:56:12.940Z,16.68
2023-01-08T07:59:25.214Z,23.55
2023-01-08T08:02:37.612Z,32.43
2023-01-08T08:05:50.037Z,20.78
2023-01-08T08:09:04.760Z,18.15
2023-01-08T08:12:17.342Z,17.00
2023-01-08T08:15:29.591Z,17.93
2023-01-08T08:18:41.824Z,18.03
2023-01-08T08:21:54.164Z,17.53
2023-01-08T08:25:06.317Z,18.30
2023-01-08T08:28:19.372Z,18.20
2023-01-08T08:31:31.719Z,17.20
2023-01-08T08:34:43.968Z,22.00
2023-01-08T08:37:56.498Z,23.45
2023-01-08T08:41:08.975Z,20.23
2023-01-08T08:44:21.224Z,19.38
2023-01-08T08:47:33.545Z,18.20
2023-01-08T08:50:46.032Z,17.70
2023-01-08T08:53:58.311Z,17.23
2023-01-08T08:57:10.400Z,16.85
2023-01-08T09:00:24.398Z,17.05
2023-01-08T09:03:37.096Z,18.43
2023-01-08T09:06:49.318Z,17.85
2023-01-08T09:10:01.684Z,16.90
2023-01-08T09:13:14.038Z,15.98
2023-01-08T09:16:26.477Z,18.33
2023-01-08T09:19:39.107Z,42.25
2023-01-08T09:22:51.340Z,18.90
2023-01-08T09:26:08.794Z,16.83
2023-01-08T09:29:21.056Z,16.33
2023-01-08T09:32:33.177Z,15.40
2023-01-08T09:35:47.530Z,15.53
2023-01-08T09:38:59.562Z,15.30
2023-01-08T09:42:15.317Z,15.58
2023-01-08T09:45:32.507Z,25.30
2023-01-08T09:48:47.623Z,47.85
2023-01-08T09:52:00.929Z,19.50
2023-01-08T09:55:19.028Z,14.83
2023-01-08T09:58:39.690Z,15.08
2023-01-08T10:01:53.226Z,14.68
2023-01-08T10:05:07.301Z,14.70
2023-01-08T10:08:21.963Z,14.23
2023-01-08T10:11:39.795Z,14.83
2023-01-08T10:14:54.485Z,14.30
2023-01-08T10:18:11.678Z,14.23
2023-01-08T10:21:25.734Z,15.40
2023-01-08T10:24:43.751Z,13.75
2023-01-08T10:28:00.708Z,14.78
2023-01-08T10:31:18.174Z,14.70
2023-01-08T10:34:46.096Z,15.43
2023-01-08T10:37:58.206Z,15.65
2023-01-08T10:41:15.219Z,15.40
2023-01-08T10:47:42.479Z,16.03
2023-01-08T10:50:54.667Z,15.18
2023-01-08T10:54:19.398Z,13.58
2023-01-08T10:57:34.964Z,15.48
2023-01-08T11:00:47.613Z,16.25
2023-01-08T11:04:03.273Z,15.20
2023-01-08T11:07:24.768Z,14.90
2023-01-08T11:10:39.487Z,15.28
2023-01-08T11:14:03.373Z,14.43
2023-01-08T11:17:18.951Z,14.60
2023-01-08T11:20:35.007Z,15.60
2023-01-08T11:23:49.091Z,15.67
2023-01-08T11:27:07.814Z,16.35
2023-01-08T11:30:25.401Z,15.35
2023-01-08T11:33:41.418Z,16.90
2023-01-08T11:36:59.403Z,14.15
2023-01-08T11:40:20.869Z,15.10
2023-01-08T11:43:41.025Z,15.38
2023-01-08T11:47:00.426Z,15.40
2023-01-08T11:50:25.972Z,16.28
2023-01-08T11:53:42.632Z,15.00
2023-01-08T11:57:12.842Z,16.15
2023-01-08T12:00:42.865Z,15.48
2023-01-08T12:04:02.473Z,14.78
2023-01-08T12:07:22.355Z,15.28
2023-01-08T12:10:52.729Z,52.23
2023-01-08T12:14:43.603Z,22.60
2023-01-08T12:18:20.762Z,16.63
2023-01-08T12:21:37.944Z,17.57
2023-01-08T12:28:46.825Z,16.58
2023-01-08T12:32:16.897Z,15.98
2023-01-08T12:35:33.318Z,15.65
2023-01-08T12:38:50.824Z,15.55
2023-01-08T12:42:08.315Z,14.78
2023-01-08T12:45:27.624Z,15.05
2023-01-08T12:48:42.612Z,14.88
2023-01-08T12:52:00.786Z,16.25
2023-01-08T12:55:24.956Z,15.98
2023-01-08T12:58:58.789Z,15.55
2023-01-08T13:02:20.058Z,23.38
2023-01-08T13:05:42.251Z,16.78
2023-01-08T13:09:00.510Z,14.48
2023-01-08T13:12:13.705Z,15.58
2023-01-08T13:15:31.577Z,14.98
2023-01-08T13:18:44.323Z,15.53
2023-01-08T13:22:02.514Z,15.40
2023-01-08T13:25:37.432Z,15.68
2023-01-08T13:28:51.991Z,16.43
2023-01-08T13:32:03.962Z,16.48
2023-01-08T13:35:31.498Z,15.60
2023-01-08T13:38:44.151Z,15.98
2023-01-08T13:42:28.782Z,15.60
2023-01-08T13:45:41.852Z,15.90
2023-01-08T13:49:02.108Z,15.53
2023-01-08T13:52:35.601Z,16.53
2023-01-08T13:55:53.373Z,15.93
2023-01-08T13:59:05.741Z,15.60
2023-01-08T14:02:37.655Z,15.85
2023-01-08T14:05:51.238Z,16.70
2023-01-08T14:09:05.979Z,15.35
2023-01-08T14:12:22.137Z,15.18
2023-01-08T14:15:37.011Z,16.10
2023-01-08T14:18:50.071Z,15.70
2023-01-08T14:22:07.013Z,15.43
2023-01-08T14:25:25.490Z,15.03
2023-01-08T14:28:37.679Z,16.55
2023-01-08T14:31:57.426Z,14.65
2023-01-08T14:35:11.447Z,15.93
2023-01-08T14:38:24.222Z,15.53
2023-01-08T14:41:52.122Z,16.65
2023-01-08T14:45:09.244Z,15.18
2023-01-08T14:51:38.625Z,14.40
2023-01-08T14:54:55.402Z,15.85
2023-01-08T14:58:07.911Z,17.33
2023-01-08T15:01:26.773Z,15.98
2023-01-08T15:04:39.232Z,17.65
2023-01-08T15:08:04.556Z,17.60
2023-01-08T15:11:26.337Z,18.38
2023-01-08T15:14:39.617Z,17.63
2023-01-08T15:17:51.805Z,18.23
2023-01-08T15:21:04.955Z,18.65
2023-01-08T15:24:27.961Z,16.88
2023-01-08T15:27:41.148Z,17.30
2023-01-08T15:30:54.566Z,17.78
2023-01-08T15:34:07.553Z,18.38
2023-01-08T15:37:21.219Z,17.58
2023-01-08T15:40:33.790Z,19.40
2023-01-08T15:43:46.104Z,18.65
2023-01-08T15:46:59.245Z,18.88
2023-01-08T15:50:13.809Z,19.13
2023-01-08T15:53:27.922Z,18.80
2023-01-08T15:56:40.171Z,18.33
2023-01-08T15:59:52.428Z,18.13
2023-01-08T16:03:04.694Z,18.45
2023-01-08T16:06:18.937Z,19.00
2023-01-08T16:09:31.184Z,18.53
2023-01-08T16:12:43.579Z,17.18
2023-01-08T16:15:56.230Z,19.55
2023-01-08T16:19:08.490Z,19.13
2023-01-08T16:22:20.836Z,18.53
2023-01-08T16:25:33.090Z,18.00
2023-01-08T16:28:45.885Z,20.13
2023-01-08T16:31:58.259Z,18.68
2023-01-08T16:35:11.721Z,19.85
2023-01-08T16:38:25.071Z,20.30
2023-01-08T16:41:37.534Z,20.40
2023-01-08T16:44:49.753Z,20.98
2023-01-08T16:48:03.016Z,19.05
2023-01-08T16:51:16.009Z,18.65
2023-01-08T16:54:28.226Z,20.25
2023-01-08T16:57:40.882Z,21.55
2023-01-08T17:00:53.345Z,20.78
2023-01-08T17:04:06.142Z,19.30
2023-01-08T17:07:20.540Z,18.40
2023-01-08T17:10:34.877Z,19.85
2023-01-08T17:13:47.870Z,19.05
2023-01-08T17:17:00.262Z,21.05
2023-01-08T17:20:15.394Z,19.05
2023-01-08T17:23:28.929Z,21.03
2023-01-08T17:26:41.671Z,19.98
2023-01-08T17:29:53.982Z,20.25
2023-01-08T17:33:06.278Z,20.45
2023-01-08T17:36:20.882Z,20.38
2023-01-08T17:39:33.225Z,22.85
2023-01-08T17:42:45.656Z,20.75
2023-01-08T17:45:58.118Z,21.35
2023-01-08T17:49:11.394Z,21.15
2023-01-08T17:52:24.365Z,24.03
2023-01-08T17:55:37.112Z,21.10
2023-01-08T17:58:49.877Z,22.18
2023-01-08T18:02:02.415Z,22.58
2023-01-08T18:05:18.140Z,21.95
2023-01-08T18:08:30.342Z,21.75
2023-01-08T18:11:42.897Z,20.63
2023-01-08T18:14:55.251Z,20.98
2023-01-08T18:18:07.766Z,20.35
2023-01-08T18:21:20.025Z,21.70
2023-01-08T18:24:32.501Z,20.18
2023-01-08T18:27:44.932Z,20.23
2023-01-08T18:30:57.153Z,21.35
2023-01-08T18:34:09.779Z,20.75
2023-01-08T18:37:23.196Z,21.40
2023-01-08T18:40:35.549Z,22.40
2023-01-08T18:43:47.913Z,20.85
2023-01-08T18:47:00.134Z,20.65
2023-01-08T18:50:14.864Z,22.50
2023-01-08T18:53:27.388Z,20.75
2023-01-08T18:56:41.370Z,20.90
2023-01-08T18:59:54.141Z,21.15
2023-01-08T19:03:08.690Z,21.43
2023-01-08T19:06:22.613Z,20.78
2023-01-08T19:09:34.858Z,20.50
2023-01-08T19:12:47.345Z,21.43
2023-01-08T19:16:00.985Z,20.73
2023-01-08T19:19:13.245Z,21.18
2023-01-08T19:22:26.860Z,19.45
2023-01-08T19:25:39.560Z,21.45
2023-01-08T19:28:52.212Z,20.73
2023-01-08T19:32:04.831Z,21.58
2023-01-08T19:35:17.911Z,20.58
2023-01-08T19:38:30.512Z,20.52
2023-01-08T19:41:57.491Z,25.30
2023-01-08T19:45:11.042Z,22.30
2023-01-08T19:48:23.545Z,21.85
2023-01-08T19:51:37.310Z,31.03
2023-01-08T19:54:50.016Z,27.93
2023-01-08T19:58:05.142Z,26.68
2023-01-08T20:01:19.997Z,24.38
2023-01-08T20:04:32.812Z,29.15
2023-01-08T20:07:45.351Z,31.65
2023-01-08T20:10:57.783Z,29.48
2023-01-08T20:14:10.773Z,31.80
2023-01-08T20:17:25.200Z,38.10
2023-01-08T20:20:37.736Z,32.13
2023-01-08T20:23:51.251Z,35.93
2023-01-08T20:27:03.526Z,42.23
2023-01-08T20:30:19.023Z,38.90
2023-01-08T20:33:31.351Z,39.28
2023-01-08T20:36:44.325Z,38.88
2023-01-08T20:39:56.988Z,36.85
2023-01-08T20:43:09.509Z,36.93
2023-01-08T20:46:22.936Z,41.33
2023-01-08T20:49:35.991Z,43.83
2023-01-08T20:52:48.265Z,44.00
2023-01-08T20:56:01.955Z,39.05
2023-01-08T20:59:14.512Z,36.08
2023-01-08T21:02:26.782Z,37.58
2023-01-08T21:05:39.760Z,41.18
2023-01-08T21:08:56.975Z,41.43
2023-01-08T21:15:21.801Z,44.83
2023-01-08T21:18:34.655Z,48.38
2023-01-08T21:21:47.257Z,49.08
2023-01-08T21:24:59.741Z,54.43
2023-01-08T21:28:12.509Z,52.40
2023-01-08T21:31:28.910Z,53.18
2023-01-08T21:34:41.776Z,56.18
2023-01-08T21:37:54.401Z,57.08
2023-01-08T21:41:15.324Z,54.68
2023-01-08T21:44:44.174Z,59.48
2023-01-08T21:47:58.546Z,55.15
2023-01-08T21:51:13.841Z,57.93
2023-01-08T21:54:26.212Z,51.38
2023-01-08T21:57:44.009Z,50.98
2023-01-08T22:00:56.908Z,53.40
2023-01-08T22:04:09.869Z,57.98
2023-01-08T22:07:23.099Z,58.05
2023-01-08T22:10:35.550Z,54.28
2023-01-08T22:13:47.955Z,52.63
2023-01-08T22:17:00.183Z,53.40
2023-01-08T22:20:17.667Z,52.90
2023-01-08T22:23:29.906Z,51.48
2023-01-08T22:26:44.736Z,51.80
2023-01-08T22:29:56.983Z,52.28
2023-01-08T22:33:09.266Z,52.50
2023-01-08T22:36:21.847Z,50.80
2023-01-08T22:39:34.640Z,50.00
2023-01-08T22:42:46.946Z,53.15
2023-01-08T22:46:02.643Z,52.65
2023-01-08T22:49:16.824Z,48.48
2023-01-08T22:52:29.080Z,47.00
2023-01-08T22:55:41.523Z,44.88
2023-01-08T22:58:53.806Z,49.38
2023-01-08T23:02:06.230Z,49.85
2023-01-08T23:05:18.633Z,49.20
2023-01-08T23:08:30.836Z,45.18
2023-01-08T23:11:43.271Z,47.03
2023-01-08T23:14:55.608Z,45.50
2023-01-08T23:18:07.907Z,41.78
2023-01-08T23:21:23.401Z,49.83
2023-01-08T23:24:36.016Z,50.73
2023-01-08T23:27:48.531Z,45.98
2023-01-08T23:31:00.769Z,44.98
2023-01-08T23:34:14.131Z,43.03
2023-01-08T23:37:27.034Z,45.48
2023-01-08T23:40:39.273Z,45.60
2023-01-08T23:43:52.280Z,44.65
2023-01-08T23:47:06.265Z,45.48
2023-01-08T23:50:19.843Z,44.13
2023-01-08T23:53:32.272Z,43.00
2023-01-08T23:56:45.585Z,43.15
